createdAt,value
2019-02-26T00:02:09.877Z,3.68
2019-02-26T00:04:39.918Z,3.65
2019-02-26T00:07:09.843Z,3.58
2019-02-26T00:09:39.864Z,3.55
2019-02-26T00:12:09.878Z,3.57
2019-02-26T00:14:39.823Z,3.52
2019-02-26T00:17:11.195Z,3.39
2019-02-26T00:19:41.431Z,3.28
2019-02-26T00:22:12.157Z,3.23
2019-02-26T00:24:44.466Z,2.98
2019-02-26T00:27:14.647Z,2.79
2019-02-26T00:29:46.278Z,2.78
2019-02-26T00:32:18.395Z,2.69
2019-02-26T00:34:47.931Z,2.70
2019-02-26T00:37:17.864Z,2.59
2019-02-26T00:39:50.146Z,2.49
2019-02-26T00:42:23.576Z,2.54
2019-02-26T00:44:55.313Z,2.52
2019-02-26T00:47:24.242Z,2.52
2019-02-26T00:49:54.126Z,2.50
2019-02-26T00:52:24.029Z,2.46
2019-02-26T00:54:57.627Z,2.47
2019-02-26T00:57:27.334Z,2.47
2019-02-26T00:59:57.191Z,2.46
2019-02-26T01:02:27.116Z,2.44
2019-02-26T01:04:56.953Z,2.49
2019-02-26T01:07:28.202Z,2.55
2019-02-26T01:09:59.227Z,2.61
2019-02-26T01:12:30.838Z,2.68
2019-02-26T01:15:02.593Z,2.76
2019-02-26T01:17:35.653Z,2.78
2019-02-26T01:20:08.037Z,2.77
2019-02-26T01:22:40.167Z,2.84
2019-02-26T01:25:10.738Z,2.88
2019-02-26T01:27:43.707Z,2.93
2019-02-26T01:30:18.199Z,2.97
2019-02-26T01:32:46.062Z,2.97
2019-02-26T01:35:16.172Z,3.04
2019-02-26T01:37:46.143Z,3.16
2019-02-26T01:40:19.195Z,3.18
2019-02-26T01:42:52.186Z,3.22
2019-02-26T01:45:21.741Z,3.19
2019-02-26T01:47:52.796Z,3.25
2019-02-26T01:50:22.795Z,3.27
2019-02-26T01:52:54.451Z,3.27
2019-02-26T01:55:25.318Z,3.21
2019-02-26T01:57:58.554Z,3.19
2019-02-26T02:00:27.916Z,3.21
2019-02-26T02:02:57.837Z,3.19
2019-02-26T02:05:29.464Z,3.21
2019-02-26T02:07:59.721Z,3.27
2019-02-26T02:10:29.642Z,3.25
2019-02-26T02:13:02.281Z,3.24
2019-02-26T02:15:31.237Z,3.31
2019-02-26T02:18:01.771Z,3.33
2019-02-26T02:20:32.908Z,3.37
2019-02-26T02:23:04.700Z,3.33
2019-02-26T02:25:36.128Z,3.34
2019-02-26T02:28:06.304Z,3.29
2019-02-26T02:30:39.019Z,3.19
2019-02-26T02:33:08.073Z,3.15
2019-02-26T02:35:38.048Z,3.13
2019-02-26T02:38:08.005Z,3.14
2019-02-26T02:40:40.187Z,3.11
2019-02-26T02:43:13.176Z,3.20
2019-02-26T02:45:42.296Z,3.19
2019-02-26T02:48:14.091Z,3.19
2019-02-26T02:50:43.884Z,3.08
2019-02-26T02:53:13.828Z,3.02
2019-02-26T02:55:46.391Z,2.98
2019-02-26T02:58:18.327Z,2.93
2019-02-26T03:00:49.376Z,2.85
2019-02-26T03:03:18.689Z,2.76
2019-02-26T03:05:48.619Z,2.69
2019-02-26T03:08:22.043Z,2.70
2019-02-26T03:10:50.430Z,2.76
2019-02-26T03:13:22.901Z,2.76
2019-02-26T03:15:53.552Z,2.74
2019-02-26T03:18:23.528Z,2.75
2019-02-26T03:20:56.156Z,2.71
2019-02-26T03:23:25.167Z,2.76
2019-02-26T03:25:56.053Z,2.77
2019-02-26T03:28:25.947Z,2.75
2019-02-26T03:30:56.983Z,2.68
2019-02-26T03:33:26.909Z,2.67
2019-02-26T03:35:56.844Z,2.64
2019-02-26T03:38:28.778Z,2.66
2019-02-26T03:41:01.103Z,2.67
2019-02-26T03:43:31.426Z,2.69
2019-02-26T03:46:01.623Z,2.63
2019-02-26T03:48:31.684Z,2.58
2019-02-26T03:51:01.578Z,2.56
2019-02-26T03:53:34.260Z,2.48
2019-02-26T03:56:04.480Z,2.38
2019-02-26T03:58:35.311Z,2.40
2019-02-26T04:01:08.458Z,2.38
2019-02-26T04:03:39.548Z,2.36
2019-02-26T04:06:12.048Z,2.38
2019-02-26T04:08:44.759Z,2.31
2019-02-26T04:11:16.529Z,2.24
2019-02-26T04:13:45.987Z,2.17
2019-02-26T04:16:17.298Z,2.09
2019-02-26T04:18:51.057Z,2.05
2019-02-26T04:21:21.027Z,1.97
2019-02-26T04:23:52.083Z,1.84
2019-02-26T04:26:58.931Z,1.82
2019-02-26T04:29:59.839Z,1.94
2019-02-26T04:33:07.226Z,2.09
2019-02-26T04:36:16.803Z,2.22
2019-02-26T04:39:23.689Z,2.24
2019-02-26T04:42:09.402Z,2.33
2019-02-26T04:45:18.544Z,2.38
2019-02-26T04:47:51.041Z,2.40
2019-02-26T04:50:23.046Z,2.43
2019-02-26T04:52:52.236Z,2.41
2019-02-26T04:55:22.384Z,2.36
2019-02-26T04:57:54.186Z,2.37
2019-02-26T05:00:28.000Z,2.36
2019-02-26T05:02:56.001Z,2.29
2019-02-26T05:05:30.665Z,2.21
2019-02-26T05:07:57.629Z,2.16
2019-02-26T05:10:29.767Z,2.14
2019-02-26T05:13:00.997Z,2.17
2019-02-26T05:15:33.140Z,2.34
2019-02-26T05:18:02.346Z,2.34
2019-02-26T05:20:34.117Z,2.33
2019-02-26T05:23:06.346Z,2.24
2019-02-26T05:25:37.359Z,2.22
2019-02-26T05:28:10.074Z,2.18
2019-02-26T05:30:40.445Z,2.17
2019-02-26T05:33:10.970Z,2.13
2019-02-26T05:35:43.801Z,2.16
2019-02-26T05:38:12.465Z,2.18
2019-02-26T05:40:43.261Z,2.16
2019-02-26T05:43:14.321Z,2.15
2019-02-26T05:45:44.331Z,1.93
2019-02-26T05:48:16.198Z,1.75
2019-02-26T05:50:46.039Z,1.58
2019-02-26T05:53:15.956Z,1.38
2019-02-26T05:55:48.773Z,1.27
2019-02-26T05:58:19.278Z,1.24
2019-02-26T06:00:50.338Z,1.26
2019-02-26T06:03:20.246Z,1.32
2019-02-26T06:05:51.975Z,1.31
2019-02-26T06:08:25.734Z,1.26
2019-02-26T06:10:53.543Z,1.25
2019-02-26T06:13:23.468Z,1.29
2019-02-26T06:15:55.239Z,1.32
2019-02-26T06:18:25.272Z,1.31
2019-02-26T06:20:55.900Z,1.29
2019-02-26T06:23:28.180Z,1.22
2019-02-26T06:26:02.344Z,1.23
2019-02-26T06:28:35.418Z,1.32
2019-02-26T06:31:02.471Z,1.39
2019-02-26T06:33:36.113Z,1.48
2019-02-26T06:36:04.751Z,1.49
2019-02-26T06:38:35.589Z,1.49
2019-02-26T06:41:05.528Z,1.49
2019-02-26T06:43:37.605Z,1.56
2019-02-26T06:46:09.269Z,1.67
2019-02-26T06:48:38.688Z,1.78
2019-02-26T06:51:09.649Z,1.87
2019-02-26T06:53:39.651Z,2.14
2019-02-26T06:56:09.653Z,2.32
2019-02-26T06:58:42.771Z,2.45
2019-02-26T07:01:14.246Z,2.52
2019-02-26T07:03:43.919Z,2.59
2019-02-26T07:06:13.853Z,2.59
2019-02-26T07:08:44.501Z,2.67
2019-02-26T07:11:15.447Z,2.72
2019-02-26T07:13:46.470Z,2.56
2019-02-26T07:16:18.117Z,2.64
2019-02-26T07:18:48.236Z,2.79
2019-02-26T07:21:18.248Z,2.83
2019-02-26T07:23:48.243Z,2.91
2019-02-26T07:26:20.310Z,3.06
2019-02-26T07:28:51.079Z,3.20
2019-02-26T07:31:21.930Z,3.31
2019-02-26T07:33:53.302Z,3.39
2019-02-26T07:36:24.103Z,3.46
2019-02-26T07:38:56.532Z,3.62
2019-02-26T07:41:30.177Z,4.12
2019-02-26T07:44:00.014Z,4.33
2019-02-26T07:46:30.044Z,4.55
2019-02-26T07:49:02.080Z,4.76
2019-02-26T07:51:33.439Z,4.73
2019-02-26T07:54:03.189Z,4.85
2019-02-26T07:56:33.091Z,4.90
2019-02-26T07:59:04.968Z,4.86
2019-02-26T08:01:35.427Z,4.79
2019-02-26T08:04:08.525Z,4.94
2019-02-26T08:06:38.484Z,5.06
2019-02-26T08:09:12.057Z,5.11
2019-02-26T08:11:42.126Z,5.04
2019-02-26T08:14:14.335Z,4.93
2019-02-26T08:16:44.357Z,5.13
2019-02-26T08:19:14.259Z,7.14
2019-02-26T08:21:45.482Z,7.80
2019-02-26T08:24:17.214Z,7.96
2019-02-26T08:26:49.686Z,8.16
2019-02-26T08:29:19.204Z,8.54
2019-02-26T08:31:49.660Z,8.84
2019-02-26T08:34:21.995Z,8.88
2019-02-26T08:36:51.957Z,8.77
2019-02-26T08:39:21.814Z,9.08
2019-02-26T08:42:08.968Z,9.08
2019-02-26T08:44:38.988Z,9.51
2019-02-26T08:47:11.417Z,9.56
2019-02-26T08:49:42.694Z,9.56
2019-02-26T08:52:12.407Z,10.09
2019-02-26T08:54:42.414Z,10.17
2019-02-26T08:57:12.380Z,10.42
2019-02-26T08:59:44.655Z,10.54
2019-02-26T09:02:14.178Z,10.90
2019-02-26T09:04:45.071Z,11.11
2019-02-26T09:07:16.385Z,10.85
2019-02-26T09:09:50.037Z,10.88
2019-02-26T09:12:22.403Z,10.85
2019-02-26T09:14:52.662Z,10.77
2019-02-26T09:17:26.072Z,11.14
2019-02-26T09:20:06.345Z,11.62
2019-02-26T09:22:26.668Z,11.42
2019-02-26T09:24:59.860Z,11.41
2019-02-26T09:27:30.123Z,11.50
2019-02-26T09:30:05.826Z,11.81
2019-02-26T09:32:37.473Z,11.76
2019-02-26T09:35:08.457Z,11.89
2019-02-26T09:37:38.391Z,11.82
2019-02-26T09:40:10.343Z,11.96
2019-02-26T09:42:40.256Z,12.09
2019-02-26T09:45:12.851Z,12.40
2019-02-26T09:47:44.814Z,12.46
2019-02-26T09:50:15.942Z,12.79
2019-02-26T09:52:47.891Z,13.04
2019-02-26T09:55:18.703Z,13.22
2019-02-26T09:57:48.606Z,13.26
2019-02-26T10:00:22.556Z,13.32
2019-02-26T10:02:52.135Z,13.37
2019-02-26T10:05:22.461Z,13.11
2019-02-26T10:07:54.954Z,12.92
2019-02-26T10:10:27.648Z,12.86
2019-02-26T10:12:58.777Z,12.98
2019-02-26T10:15:27.204Z,13.02
2019-02-26T10:17:59.593Z,13.36
2019-02-26T10:20:31.642Z,13.67
2019-02-26T10:23:03.264Z,13.97
2019-02-26T10:25:34.790Z,13.99
2019-02-26T10:28:08.642Z,13.72
2019-02-26T10:30:36.950Z,13.82
2019-02-26T10:33:08.542Z,14.00
2019-02-26T10:35:41.371Z,14.08
2019-02-26T10:38:11.545Z,14.39
2019-02-26T10:40:53.547Z,14.66
2019-02-26T10:43:13.600Z,15.04
2019-02-26T10:45:44.854Z,14.91
2019-02-26T10:48:18.554Z,14.95
2019-02-26T10:50:51.227Z,15.22
2019-02-26T10:53:22.608Z,15.56
2019-02-26T10:55:51.314Z,15.60
2019-02-26T10:58:21.490Z,15.21
2019-02-26T11:00:55.593Z,15.06
2019-02-26T11:03:25.192Z,14.73
2019-02-26T11:05:55.186Z,14.71
2019-02-26T11:08:28.969Z,14.71
2019-02-26T11:10:56.875Z,14.89
2019-02-26T11:13:26.847Z,14.82
2019-02-26T11:15:59.832Z,15.12
2019-02-26T11:18:28.388Z,15.29
2019-02-26T11:20:59.225Z,15.79
2019-02-26T11:23:31.210Z,15.77
2019-02-26T11:26:00.951Z,15.83
2019-02-26T11:28:33.250Z,15.77
2019-02-26T11:31:02.472Z,15.71
2019-02-26T11:33:32.487Z,15.60
2019-02-26T11:36:03.073Z,15.84
2019-02-26T11:38:35.291Z,15.80
2019-02-26T11:41:05.664Z,15.87
2019-02-26T11:43:35.576Z,15.50
2019-02-26T11:46:06.838Z,15.59
2019-02-26T11:48:37.323Z,15.74
2019-02-26T11:51:07.258Z,15.59
2019-02-26T11:53:37.147Z,15.73
2019-02-26T11:56:07.139Z,15.85
2019-02-26T11:58:37.027Z,15.81
2019-02-26T12:01:12.445Z,15.83
2019-02-26T12:03:43.947Z,16.08
2019-02-26T12:06:14.010Z,16.42
2019-02-26T12:08:44.888Z,16.02
2019-02-26T12:11:17.724Z,16.06
2019-02-26T12:13:50.208Z,16.21
2019-02-26T12:16:20.017Z,15.95
2019-02-26T12:18:49.991Z,15.84
2019-02-26T12:21:19.893Z,15.96
2019-02-26T12:23:50.845Z,16.23
2019-02-26T12:26:22.201Z,16.36
2019-02-26T12:28:54.665Z,16.48
2019-02-26T12:31:25.265Z,16.55
2019-02-26T12:33:55.666Z,16.49
2019-02-26T12:36:26.614Z,16.55
2019-02-26T12:38:59.204Z,16.52
2019-02-26T12:41:29.028Z,16.36
2019-02-26T12:44:01.407Z,16.27
2019-02-26T12:46:31.940Z,16.54
2019-02-26T12:49:02.964Z,16.61
2019-02-26T12:51:35.428Z,17.15
2019-02-26T12:54:06.208Z,17.54
2019-02-26T12:56:38.296Z,17.54
2019-02-26T12:59:08.353Z,17.29
2019-02-26T13:01:39.862Z,17.43
2019-02-26T13:04:12.894Z,17.51
2019-02-26T13:06:45.270Z,17.69
2019-02-26T13:09:13.433Z,17.63
2019-02-26T13:12:00.607Z,17.53
2019-02-26T13:14:14.988Z,17.50
2019-02-26T13:16:46.750Z,17.49
2019-02-26T13:19:21.843Z,17.84
2019-02-26T13:21:51.858Z,17.84
2019-02-26T13:24:22.401Z,17.81
2019-02-26T13:26:54.471Z,17.70
2019-02-26T13:29:25.284Z,17.71
2019-02-26T13:31:59.067Z,18.18
2019-02-26T13:34:27.204Z,18.36
2019-02-26T13:36:57.200Z,18.20
2019-02-26T13:39:33.030Z,17.62
2019-02-26T13:42:04.222Z,17.66
2019-02-26T13:44:30.600Z,17.95
2019-02-26T13:47:00.676Z,17.94
2019-02-26T13:49:30.573Z,18.46
2019-02-26T13:52:00.499Z,18.71
2019-02-26T13:54:30.431Z,18.54
2019-02-26T13:57:00.409Z,18.76
2019-02-26T13:59:30.319Z,18.42
2019-02-26T14:02:00.264Z,17.91
2019-02-26T14:04:30.171Z,17.92
2019-02-26T14:07:00.110Z,18.21
2019-02-26T14:09:31.174Z,18.20
2019-02-26T14:12:01.116Z,17.85
2019-02-26T14:14:31.195Z,17.88
2019-02-26T14:17:01.156Z,17.28
2019-02-26T14:19:31.133Z,17.30
2019-02-26T14:22:01.220Z,17.27
2019-02-26T14:24:31.032Z,16.95
2019-02-26T14:27:01.058Z,16.62
2019-02-26T14:29:30.966Z,16.86
2019-02-26T14:32:00.853Z,17.27
2019-02-26T14:34:30.662Z,17.65
2019-02-26T14:37:03.248Z,17.94
2019-02-26T14:39:33.240Z,17.98
2019-02-26T14:42:03.222Z,18.05
2019-02-26T14:44:33.195Z,17.75
2019-02-26T14:47:03.409Z,17.68
2019-02-26T14:49:33.323Z,17.76
2019-02-26T14:52:03.208Z,17.71
2019-02-26T14:54:33.170Z,17.91
2019-02-26T14:57:03.111Z,18.01
2019-02-26T14:59:33.151Z,18.13
2019-02-26T15:02:03.148Z,17.80
2019-02-26T15:04:33.106Z,17.64
2019-02-26T15:07:04.155Z,17.69
2019-02-26T15:09:34.595Z,17.66
2019-02-26T15:12:04.717Z,17.38
2019-02-26T15:14:34.631Z,17.34
2019-02-26T15:17:04.532Z,17.20
2019-02-26T15:19:34.502Z,16.93
2019-02-26T15:22:04.523Z,16.63
2019-02-26T15:24:34.517Z,16.64
2019-02-26T15:27:04.486Z,16.44
2019-02-26T15:29:34.389Z,16.32
2019-02-26T15:32:04.584Z,16.19
2019-02-26T15:34:34.561Z,15.97
2019-02-26T15:37:05.654Z,15.91
2019-02-26T15:39:35.548Z,15.91
2019-02-26T15:42:05.591Z,15.94
2019-02-26T15:44:35.455Z,15.98
2019-02-26T15:47:05.488Z,16.29
2019-02-26T15:49:35.834Z,16.54
2019-02-26T15:52:07.016Z,16.85
2019-02-26T15:54:37.060Z,16.79
2019-02-26T15:57:09.898Z,16.66
2019-02-26T15:59:39.756Z,16.53
2019-02-26T16:02:09.787Z,16.42
2019-02-26T16:04:39.647Z,16.26
2019-02-26T16:07:09.838Z,16.10
2019-02-26T16:09:40.554Z,16.14
2019-02-26T16:12:10.633Z,16.13
2019-02-26T16:14:40.553Z,15.91
2019-02-26T16:17:10.730Z,15.75
2019-02-26T16:19:40.584Z,15.62
2019-02-26T16:22:10.462Z,15.43
2019-02-26T16:24:40.308Z,15.33
2019-02-26T16:27:10.168Z,15.15
2019-02-26T16:29:41.469Z,14.98
2019-02-26T16:32:11.442Z,14.72
2019-02-26T16:34:41.360Z,14.54
2019-02-26T16:37:11.382Z,14.42
2019-02-26T16:39:41.523Z,14.30
2019-02-26T16:42:11.777Z,14.16
2019-02-26T16:44:42.307Z,14.00
2019-02-26T16:47:12.656Z,13.84
2019-02-26T16:49:43.899Z,13.67
2019-02-26T16:52:14.761Z,13.55
2019-02-26T16:54:44.678Z,13.42
2019-02-26T16:57:14.628Z,13.30
2019-02-26T16:59:44.480Z,13.19
2019-02-26T17:02:15.095Z,13.09
2019-02-26T17:04:44.895Z,13.03
2019-02-26T17:07:14.803Z,12.97
2019-02-26T17:09:45.677Z,12.86
2019-02-26T17:12:15.652Z,12.80
2019-02-26T17:14:45.851Z,12.84
2019-02-26T17:17:15.811Z,12.70
2019-02-26T17:19:48.302Z,12.54
2019-02-26T17:22:17.302Z,12.44
2019-02-26T17:24:47.283Z,12.30
2019-02-26T17:27:17.237Z,12.20
2019-02-26T17:29:49.605Z,12.08
2019-02-26T17:32:18.984Z,12.03
2019-02-26T17:34:49.758Z,11.94
2019-02-26T17:37:20.455Z,11.87
2019-02-26T17:39:50.453Z,11.83
2019-02-26T17:42:20.416Z,11.66
2019-02-26T17:44:51.334Z,11.46
2019-02-26T17:47:21.354Z,11.25
2019-02-26T17:49:52.333Z,11.08
2019-02-26T17:52:22.332Z,11.10
2019-02-26T17:54:52.343Z,11.14
2019-02-26T17:57:22.318Z,11.14
2019-02-26T17:59:52.776Z,11.02
2019-02-26T18:02:22.747Z,10.99
2019-02-26T18:04:52.619Z,10.88
2019-02-26T18:07:22.558Z,10.79
2019-02-26T18:09:52.660Z,10.53
2019-02-26T18:12:23.742Z,10.22
2019-02-26T18:14:53.693Z,10.00
2019-02-26T18:17:23.547Z,9.89
2019-02-26T18:19:53.479Z,9.82
2019-02-26T18:22:23.322Z,9.75
2019-02-26T18:24:53.288Z,9.73
2019-02-26T18:27:23.232Z,9.74
2019-02-26T18:29:53.231Z,9.73
2019-02-26T18:32:23.149Z,9.65
2019-02-26T18:34:53.014Z,9.63
2019-02-26T18:37:23.994Z,9.61
2019-02-26T18:39:54.808Z,9.49
2019-02-26T18:42:25.289Z,9.37
2019-02-26T18:44:55.191Z,9.25
2019-02-26T18:47:25.022Z,9.14
2019-02-26T18:49:56.089Z,9.07
2019-02-26T18:52:26.445Z,8.94
2019-02-26T18:54:56.335Z,8.82
2019-02-26T18:57:26.282Z,8.70
2019-02-26T18:59:56.112Z,8.60
2019-02-26T19:02:25.984Z,8.51
2019-02-26T19:04:55.893Z,8.43
2019-02-26T19:07:25.791Z,8.34
2019-02-26T19:09:55.763Z,8.28
2019-02-26T19:12:25.726Z,8.21
2019-02-26T19:14:55.643Z,8.21
2019-02-26T19:17:26.828Z,8.21
2019-02-26T19:19:58.227Z,8.27
2019-02-26T19:22:28.122Z,8.24
2019-02-26T19:24:58.034Z,8.09
2019-02-26T19:27:27.986Z,8.06
2019-02-26T19:29:57.801Z,8.05
2019-02-26T19:32:28.805Z,7.97
2019-02-26T19:35:00.999Z,7.91
2019-02-26T19:37:30.460Z,7.91
2019-02-26T19:40:00.320Z,7.92
2019-02-26T19:42:30.365Z,7.95
2019-02-26T19:45:00.350Z,8.01
2019-02-26T19:47:30.314Z,8.08
2019-02-26T19:50:00.311Z,8.15
2019-02-26T19:52:30.089Z,8.13
2019-02-26T19:55:00.223Z,8.05
2019-02-26T19:57:30.315Z,7.95
2019-02-26T20:00:01.147Z,7.84
2019-02-26T20:02:32.477Z,7.83
2019-02-26T20:05:03.304Z,7.71
2019-02-26T20:07:35.150Z,7.53
2019-02-26T20:10:05.774Z,7.33
2019-02-26T20:12:35.760Z,7.27
2019-02-26T20:15:06.113Z,7.16
2019-02-26T20:17:36.039Z,7.14
2019-02-26T20:20:06.772Z,7.13
2019-02-26T20:22:36.798Z,7.15
2019-02-26T20:25:07.914Z,7.22
2019-02-26T20:27:37.803Z,7.24
2019-02-26T20:30:09.580Z,7.19
2019-02-26T20:32:40.039Z,7.10
2019-02-26T20:35:11.973Z,7.06
2019-02-26T20:37:42.537Z,7.03
2019-02-26T20:40:16.299Z,7.02
2019-02-26T20:42:46.291Z,7.09
2019-02-26T20:45:18.819Z,6.97
2019-02-26T20:47:48.878Z,6.94
2019-02-26T20:50:21.064Z,6.83
2019-02-26T20:52:50.518Z,6.76
2019-02-26T20:55:20.787Z,6.78
2019-02-26T20:57:50.799Z,6.83
2019-02-26T21:00:24.905Z,6.89
2019-02-26T21:02:52.679Z,6.91
2019-02-26T21:05:22.544Z,6.93
2019-02-26T21:07:52.409Z,6.93
2019-02-26T21:10:22.476Z,7.01
2019-02-26T21:12:52.494Z,7.11
2019-02-26T21:15:22.568Z,7.21
2019-02-26T21:17:52.527Z,7.28
2019-02-26T21:20:22.457Z,7.35
2019-02-26T21:22:54.605Z,7.42
2019-02-26T21:25:24.087Z,7.52
2019-02-26T21:27:54.008Z,7.53
2019-02-26T21:30:24.077Z,7.59
2019-02-26T21:32:57.817Z,7.62
2019-02-26T21:35:25.664Z,7.71
2019-02-26T21:37:55.693Z,7.79
2019-02-26T21:40:25.517Z,7.82
2019-02-26T21:42:55.471Z,7.91
2019-02-26T21:45:25.333Z,7.97
2019-02-26T21:47:55.339Z,8.03
2019-02-26T21:50:25.210Z,8.08
2019-02-26T21:53:02.230Z,8.12
2019-02-26T21:55:26.747Z,8.12
2019-02-26T21:57:56.578Z,8.17
2019-02-26T22:00:26.592Z,8.24
2019-02-26T22:02:56.442Z,8.26
2019-02-26T22:05:26.385Z,8.21
2019-02-26T22:07:56.215Z,8.19
2019-02-26T22:10:26.246Z,8.17
2019-02-26T22:12:56.879Z,8.09
2019-02-26T22:15:27.314Z,8.02
2019-02-26T22:17:58.126Z,7.97
2019-02-26T22:20:36.292Z,7.91
2019-02-26T22:23:01.143Z,7.95
2019-02-26T22:25:31.301Z,8.00
2019-02-26T22:28:01.204Z,8.06
2019-02-26T22:30:31.097Z,8.13
2019-02-26T22:33:00.964Z,9.33
2019-02-26T22:35:30.865Z,9.92
2019-02-26T22:38:00.744Z,10.28
2019-02-26T22:40:30.573Z,10.16
2019-02-26T22:43:00.549Z,10.11
2019-02-26T22:45:30.635Z,10.15
2019-02-26T22:48:00.891Z,10.14
2019-02-26T22:50:30.725Z,10.17
2019-02-26T22:53:03.749Z,10.10
2019-02-26T22:55:32.305Z,10.12
2019-02-26T22:58:02.774Z,10.12
2019-02-26T23:01:06.071Z,10.17
2019-02-26T23:03:37.776Z,10.18
2019-02-26T23:06:08.158Z,10.02
2019-02-26T23:08:38.249Z,9.82
2019-02-26T23:11:09.611Z,9.70
2019-02-26T23:13:39.777Z,9.77
2019-02-26T23:16:09.820Z,9.69
2019-02-26T23:18:40.118Z,9.55
2019-02-26T23:21:15.436Z,9.40
2019-02-26T23:23:43.614Z,9.29
2019-02-26T23:26:13.804Z,9.24
2019-02-26T23:28:43.903Z,9.31
2019-02-26T23:31:14.565Z,9.14
2019-02-26T23:33:48.400Z,9.03
2019-02-26T23:36:18.172Z,9.18
2019-02-26T23:38:48.919Z,9.01
2019-02-26T23:41:18.901Z,9.14
2019-02-26T23:43:48.919Z,9.13
2019-02-26T23:46:20.016Z,8.94
2019-02-26T23:48:49.845Z,8.86
2019-02-26T23:51:21.042Z,9.00
2019-02-26T23:53:51.120Z,8.96
2019-02-26T23:56:21.042Z,9.22
2019-02-26T23:58:50.911Z,9.22
